Time;durP1;ratioP1;P1;durP2;ratioP2;P2;SDS_P1;SDS_P2;PMS_P1;PMS_P2;Temp;Humidity;BMP_temperature;BMP_pressure;BME280_temperature;BME280_humidity;BME280_pressure;Samples;Min_cycle;Max_cycle;Signal;HPM_P1;HPM_P2
2023/10/13 00:00:36;;;;;;;15.13;4.07;;;;;;;15.33;73.90;101156.72;5049605;28;20044;-74
2023/10/13 00:03:03;;;;;;;15.93;4.13;;;;;;;15.35;73.67;101164.75;5049474;28;20116;-73
2023/10/13 00:05:30;;;;;;;11.40;2.72;;;;;;;15.37;73.51;101158.16;5014160;28;20029;-74
2023/10/13 00:08:03;;;;;;;12.70;2.97;;;;;;;15.36;73.50;101153.75;5049244;28;20473;-74
2023/10/13 00:10:33;;;;;;;19.17;3.60;;;;;;;15.32;73.45;101140.63;5049271;28;20516;-75
2023/10/13 00:13:11;;;;;;;8.98;2.78;;;;;;;15.38;73.40;101153.63;5049377;28;20025;-75
2023/10/13 00:15:57;;;;;;;18.05;2.90;;;;;;;15.17;73.44;101119.34;5049321;28;20041;-74
2023/10/13 00:18:27;;;;;;;6.90;2.70;;;;;;;15.21;73.64;101120.78;4997730;28;20041;-74
2023/10/13 00:20:56;;;;;;;13.40;3.33;;;;;;;15.35;73.28;101143.06;5048835;28;20028;-75
2023/10/13 00:23:22;;;;;;;22.75;4.18;;;;;;;15.34;73.56;101131.34;5049246;28;20128;-75
2023/10/13 00:25:56;;;;;;;10.60;3.85;;;;;;;15.33;73.34;101140.47;5049057;28;20485;-74
2023/10/13 00:28:24;;;;;;;6.40;2.58;;;;;;;15.17;73.32;101111.22;5049250;28;20546;-75
2023/10/13 00:30:52;;;;;;;19.60;3.05;;;;;;;15.34;73.46;101133.19;5048675;28;20144;-74
2023/10/13 00:33:20;;;;;;;9.18;3.45;;;;;;;15.34;73.34;101141.34;5049241;28;20061;-74
2023/10/13 00:35:47;;;;;;;9.50;3.30;;;;;;;15.20;73.09;101119.06;5013686;28;20037;-74
2023/10/13 00:38:12;;;;;;;12.40;3.58;;;;;;;15.32;73.50;101137.91;5048835;28;20033;-74
2023/10/13 00:45:54;;;;;;;8.20;2.60;;;;;;;15.29;74.09;101133.63;5049080;28;20043;-74
2023/10/13 00:48:34;;;;;;;7.85;2.90;;;;;;;15.25;74.39;101129.50;5049052;28;20120;-74
2023/10/13 00:51:07;;;;;;;11.82;3.80;;;;;;;15.31;74.28;101125.34;5049213;28;20033;-75
2023/10/13 00:53:44;;;;;;;20.67;3.25;;;;;;;15.25;74.29;101116.81;5048918;28;20623;-74
2023/10/13 00:56:18;;;;;;;14.07;2.67;;;;;;;15.20;73.91;101118.22;5049019;28;20036;-74
2023/10/13 00:58:50;;;;;;;7.10;2.67;;;;;;;15.20;73.84;101124.50;5050468;28;20408;-74
2023/10/13 01:01:21;;;;;;;9.57;2.97;;;;;;;15.12;73.98;101113.53;5003359;28;20033;-75
2023/10/13 01:03:58;;;;;;;9.10;2.95;;;;;;;15.13;73.82;101120.66;5052843;28;20087;-74
2023/10/13 01:06:25;;;;;;;20.08;3.90;;;;;;;15.08;73.70;101114.78;5052988;28;20036;-74
2023/10/13 01:09:24;;;;;;;13.73;3.97;;;;;;;14.93;73.80;101094.53;5052369;28;20037;-74
2023/10/13 01:11:53;;;;;;;12.02;3.38;;;;;;;14.94;74.11;101092.69;4951879;29;20048;-74
2023/10/13 01:14:20;;;;;;;12.90;3.00;;;;;;;15.06;74.06;101111.38;4952216;29;20448;-74
2023/10/13 01:16:47;;;;;;;12.02;2.92;;;;;;;15.06;73.97;101116.81;4952116;29;20039;-74
2023/10/13 01:19:27;;;;;;;16.05;3.88;;;;;;;14.90;73.96;101086.69;4951895;29;20031;-74
2023/10/13 01:21:57;;;;;;;16.65;5.00;;;;;;;15.03;74.15;101103.53;4951894;29;20154;-74
2023/10/13 01:24:24;;;;;;;17.23;3.75;;;;;;;15.01;74.22;101105.53;4951921;29;20042;-74
2023/10/13 01:26:52;;;;;;;14.25;4.22;;;;;;;14.94;74.18;101107.09;4951748;29;20043;-75
2023/10/13 01:29:19;;;;;;;10.95;4.78;;;;;;;14.97;74.14;101106.81;4951283;29;20487;-74
2023/10/13 01:31:46;;;;;;;11.38;3.47;;;;;;;14.94;74.00;101108.94;4935430;29;20134;-74
2023/10/13 01:34:12;;;;;;;13.38;3.58;;;;;;;14.97;74.12;101104.09;4951667;29;20027;-76
2023/10/13 01:36:40;;;;;;;11.98;3.35;;;;;;;14.98;74.39;101103.09;4951832;29;20122;-75
2023/10/13 01:39:07;;;;;;;7.07;2.90;;;;;;;14.85;74.27;101086.28;4951659;29;20166;-75
2023/10/13 01:41:32;;;;;;;12.93;3.58;;;;;;;14.94;73.90;101112.50;4951552;29;20043;-76
2023/10/13 01:43:58;;;;;;;24.55;4.50;;;;;;;14.88;73.71;101112.22;4951229;29;20050;-74
2023/10/13 01:46:23;;;;;;;13.30;3.20;;;;;;;14.71;73.73;101073.13;4951531;29;20118;-74
2023/10/13 01:48:49;;;;;;;15.43;4.45;;;;;;;14.87;74.04;101108.66;5010040;28;20041;-75
2023/10/13 01:51:14;;;;;;;28.77;5.78;;;;;;;14.91;74.13;101104.66;5051955;28;20029;-73
2023/10/13 01:53:43;;;;;;;9.20;3.90;;;;;;;14.86;73.78;101103.38;5052241;28;20029;-75
2023/10/13 01:56:12;;;;;;;17.42;3.70;;;;;;;14.83;73.97;101090.97;5051583;28;20086;-75
2023/10/13 01:58:42;;;;;;;13.63;4.18;;;;;;;14.91;73.75;101093.84;5051967;28;20136;-74
2023/10/13 02:01:10;;;;;;;14.27;3.15;;;;;;;14.90;73.54;101094.81;5051843;28;20112;-74
2023/10/13 02:03:41;;;;;;;16.92;4.32;;;;;;;14.88;73.58;101094.13;5052135;28;20107;-74
2023/10/13 02:06:10;;;;;;;7.63;3.63;;;;;;;14.91;73.65;101095.69;5051467;28;20033;-74
2023/10/13 02:08:39;;;;;;;16.63;3.88;;;;;;;14.89;73.46;101098.50;5051652;28;20481;-74
2023/10/13 02:11:07;;;;;;;18.50;4.40;;;;;;;14.84;73.34;101094.53;5050252;28;20025;-75
2023/10/13 02:13:32;;;;;;;12.30;3.55;;;;;;;14.84;73.31;101099.94;5051430;28;20029;-74
2023/10/13 02:16:02;;;;;;;12.50;4.18;;;;;;;14.89;73.42;101103.94;5050841;28;20036;-75
2023/10/13 02:18:27;;;;;;;27.05;4.10;;;;;;;14.88;73.28;101096.81;5051493;28;20064;-74
2023/10/13 02:20:54;;;;;;;12.10;2.97;;;;;;;14.77;73.25;101077.97;5051541;28;20117;-75
2023/10/13 02:23:30;;;;;;;15.88;4.10;;;;;;;14.76;73.12;101081.69;5051568;28;20029;-75
2023/10/13 02:28:40;;;;;;;20.40;4.80;;;;;;;14.81;73.35;101101.09;5051290;28;20095;-75
2023/10/13 02:31:06;;;;;;;28.27;5.50;;;;;;;14.79;73.51;101108.50;5050878;28;20059;-73
2023/10/13 02:33:33;;;;;;;18.08;5.70;;;;;;;14.84;73.49;101111.63;5051527;28;20031;-74
2023/10/13 02:36:03;;;;;;;21.55;4.95;;;;;;;14.88;73.66;101107.66;5050767;28;20086;-75
2023/10/13 02:38:45;;;;;;;15.65;4.55;;;;;;;14.92;73.56;101098.22;5050871;28;20021;-75
2023/10/13 02:41:18;;;;;;;46.25;10.13;;;;;;;14.90;73.57;101105.66;5050941;28;20083;-74
2023/10/13 02:43:44;;;;;;;28.02;7.03;;;;;;;14.87;73.87;101099.66;5050988;28;20078;-75
2023/10/13 02:46:09;;;;;;;16.52;5.20;;;;;;;14.86;74.30;101098.78;5050952;28;20033;-74
2023/10/13 02:48:41;;;;;;;15.40;4.57;;;;;;;14.86;74.04;101101.50;5051087;28;20021;-75
2023/10/13 02:51:18;;;;;;;12.73;5.65;;;;;;;14.82;74.72;101086.56;5051260;28;20021;-75
2023/10/13 02:53:50;;;;;;;12.50;5.25;;;;;;;14.85;74.42;101085.41;4998950;28;20678;-75
2023/10/13 02:56:22;;;;;;;;;;;;;;;14.96;74.17;101096.97;5051151;28;20021;-75
2023/10/13 02:59:05;;;;;;;20.63;5.68;;;;;;;14.85;74.50;101096.25;5051003;28;20007;-75
2023/10/13 03:01:35;;;;;;;33.83;6.00;;;;;;;14.86;74.56;101095.25;5050884;28;20176;-75
2023/10/13 03:04:12;;;;;;;15.93;5.82;;;;;;;14.86;74.24;101095.25;5050696;28;20029;-74
2023/10/13 03:06:40;;;;;;;20.98;8.65;;;;;;;14.73;74.14;101054.03;5050367;28;20082;-74
2023/10/13 03:09:26;;;;;;;15.48;7.45;;;;;;;14.90;74.68;101089.41;5015251;28;20040;-74
2023/10/13 03:11:51;;;;;;;22.35;7.13;;;;;;;14.92;74.43;101087.41;5050470;28;20032;-74
2023/10/13 03:14:24;;;;;;;31.98;8.02;;;;;;;14.98;74.22;101086.00;5050672;28;20024;-73
2023/10/13 03:16:53;;;;;;;24.30;7.93;;;;;;;14.89;74.30;101070.59;5050204;28;20025;-74
2023/10/13 03:19:19;;;;;;;23.67;8.68;;;;;;;14.87;74.09;101078.84;5050354;28;20044;-74
2023/10/13 03:21:54;;;;;;;20.30;7.97;;;;;;;14.77;74.23;101064.44;5049834;28;20425;-74
2023/10/13 03:24:33;;;;;;;14.13;7.55;;;;;;;14.86;74.65;101085.25;5050272;28;20028;-74
2023/10/13 03:27:08;;;;;;;15.32;5.43;;;;;;;14.88;74.62;101080.56;5050132;28;20116;-74
2023/10/13 03:29:42;;;;;;;23.58;7.30;;;;;;;14.86;74.39;101081.72;5049888;28;20334;-74
2023/10/13 03:32:14;;;;;;;23.95;5.93;;;;;;;14.83;73.77;101077.41;5049511;28;20115;-74
2023/10/13 03:34:53;;;;;;;19.48;5.75;;;;;;;14.81;74.06;101076.72;5049605;28;20037;-74
2023/10/13 03:37:38;;;;;;;23.63;5.80;;;;;;;14.78;73.98;101073.41;5049944;28;20033;-74
2023/10/13 03:43:04;;;;;;;16.75;5.35;;;;;;;14.45;74.38;101050.28;4987874;28;20516;-75
2023/10/13 03:45:39;;;;;;;30.73;7.40;;;;;;;14.48;74.72;101052.72;4987828;28;20102;-74
2023/10/13 03:51:07;;;;;;;43.60;8.93;;;;;;;14.36;75.48;101062.81;4968473;28;20500;-75
2023/10/13 03:53:34;;;;;;;54.97;8.77;;;;;;;14.45;75.32;101077.38;4951993;28;20177;-75
2023/10/13 03:58:50;;;;;;;56.67;11.07;;;;;;;14.50;74.79;101077.78;4929995;29;20058;-74
2023/10/13 04:01:16;;;;;;;30.17;9.02;;;;;;;14.49;74.90;101084.22;4930096;29;20066;-74
2023/10/13 04:03:57;;;;;;;50.42;10.30;;;;;;;14.43;75.02;101090.19;4929722;29;20094;-74
2023/10/13 04:06:48;;;;;;;95.30;14.48;;;;;;;14.30;75.68;101073.31;4929923;29;20078;-74
2023/10/13 04:09:51;;;;;;;47.53;11.50;;;;;;;14.40;75.09;101074.22;4929515;29;20134;-74
2023/10/13 04:17:23;;;;;;;39.72;11.30;;;;;;;14.51;75.48;101099.31;4916626;29;20067;-74
2023/10/13 04:41:41;;;;;;;61.88;14.95;;;;;;;14.66;75.37;101113.31;5035867;28;20076;-77
2023/10/13 04:57:31;;;;;;;78.25;13.00;;;;;;;14.71;74.30;101121.88;5035905;28;20413;-75
2023/10/13 06:29:45;;;;;;;152.00;79.07;;;;;;;16.39;68.88;101173.69;5050858;28;20068;-75
2023/10/13 06:32:12;;;;;;;139.32;79.70;;;;;;;16.41;68.59;101181.69;5051339;28;20109;-74
2023/10/13 06:34:42;;;;;;;164.38;80.40;;;;;;;16.51;68.94;101182.53;5051648;28;20033;-74
2023/10/13 06:37:22;;;;;;;150.82;78.32;;;;;;;16.52;68.76;101184.22;5051406;28;20116;-75
2023/10/13 06:39:49;;;;;;;143.45;74.25;;;;;;;16.54;68.98;101188.56;5050934;28;20082;-75
2023/10/13 06:42:16;;;;;;;132.77;73.85;;;;;;;16.60;68.81;101185.25;5050485;28;20033;-75
2023/10/13 06:44:45;;;;;;;136.85;75.88;;;;;;;16.69;68.47;101181.63;5050906;28;20157;-75
2023/10/13 06:47:11;;;;;;;130.35;66.57;;;;;;;16.70;68.40;101166.16;5050683;28;20071;-75
2023/10/13 06:49:38;;;;;;;116.13;62.10;;;;;;;16.79;68.15;101176.09;5050892;28;20028;-75
2023/10/13 06:52:06;;;;;;;137.15;67.18;;;;;;;16.88;67.65;101173.34;5050645;28;20467;-74
2023/10/13 06:54:35;;;;;;;120.43;58.72;;;;;;;17.04;67.23;101186.25;5050517;28;20436;-74
2023/10/13 06:57:03;;;;;;;109.13;54.72;;;;;;;17.08;66.93;101176.81;5050082;28;20025;-75
2023/10/13 06:59:34;;;;;;;88.65;48.15;;;;;;;17.08;66.32;101170.50;5051037;28;20029;-75
2023/10/13 07:02:06;;;;;;;103.30;45.75;;;;;;;17.12;66.21;101178.22;5050183;28;20024;-75
2023/10/13 07:04:32;;;;;;;85.40;49.07;;;;;;;17.13;66.26;101169.03;5050779;28;20029;-74
2023/10/13 07:07:00;;;;;;;73.25;40.50;;;;;;;17.32;65.92;101184.34;5050551;28;20872;-75
2023/10/13 07:09:55;;;;;;;87.32;39.65;;;;;;;17.40;65.56;101182.56;5050425;28;20102;-75
2023/10/13 07:12:18;;;;;;;64.30;34.50;;;;;;;17.49;65.29;101185.38;5047766;28;20025;-75
2023/10/13 07:15:26;;;;;;;71.38;31.27;;;;;;;17.55;64.63;101176.63;5050542;28;20025;-75
2023/10/13 07:17:40;;;;;;;72.97;27.15;;;;;;;17.62;64.41;101164.09;5045249;28;20635;-75
2023/10/13 07:23:02;;;;;;;70.13;24.70;;;;;;;17.75;63.00;101181.72;5006651;28;20550;-75
2023/10/13 07:25:32;;;;;;;82.32;27.02;;;;;;;17.83;63.05;101167.31;5050260;28;20025;-74
2023/10/13 07:28:06;;;;;;;67.97;25.25;;;;;;;17.73;62.83;101156.56;5049661;28;20067;-74
2023/10/13 07:30:39;;;;;;;69.80;28.17;;;;;;;18.03;62.46;101181.59;5013856;28;20048;-75
2023/10/13 07:33:05;;;;;;;64.55;28.75;;;;;;;18.09;62.17;101179.09;5050013;28;20029;-75
2023/10/13 07:35:35;;;;;;;54.40;28.67;;;;;;;18.15;62.08;101173.00;5049725;28;20483;-75
2023/10/13 07:38:01;;;;;;;78.35;32.67;;;;;;;18.20;61.48;101175.22;5049663;28;20057;-74
2023/10/13 07:40:39;;;;;;;70.47;31.40;;;;;;;18.32;61.30;101184.84;5049789;28;20052;-74
2023/10/13 07:43:09;;;;;;;60.47;29.42;;;;;;;18.24;61.37;101155.72;5049931;28;20109;-75
2023/10/13 07:45:37;;;;;;;70.15;28.13;;;;;;;18.51;61.20;101178.34;5050162;28;20053;-76
2023/10/13 07:48:21;;;;;;;101.45;30.85;;;;;;;18.59;60.41;101172.94;5049654;28;20025;-76
2023/10/13 07:51:03;;;;;;;77.45;25.13;;;;;;;18.60;60.03;101144.66;5049624;28;20025;-75
2023/10/13 07:53:34;;;;;;;68.70;22.63;;;;;;;18.81;59.54;101153.25;5049444;28;20021;-74
2023/10/13 07:56:11;;;;;;;57.08;22.00;;;;;;;19.04;59.39;101159.81;5049359;28;20029;-74
2023/10/13 07:58:53;;;;;;;57.60;21.17;;;;;;;19.21;59.13;101157.97;5049511;28;20138;-74
2023/10/13 08:01:21;;;;;;;53.10;20.80;;;;;;;19.37;59.13;101155.28;5049585;28;20040;-75
2023/10/13 08:03:49;;;;;;;48.13;21.02;;;;;;;19.46;58.84;101155.16;5049596;28;20039;-76
2023/10/13 08:08:43;;;;;;;46.17;16.80;;;;;;;19.83;58.32;101161.97;5048768;28;20027;-74
2023/10/13 08:11:11;;;;;;;51.60;15.65;;;;;;;19.93;57.75;101155.31;5049267;28;20500;-76
2023/10/13 08:13:46;;;;;;;42.50;14.85;;;;;;;20.08;57.49;101159.06;5049022;28;20021;-75
2023/10/13 08:16:22;;;;;;;34.72;14.27;;;;;;;20.21;56.85;101154.94;5049244;28;20396;-75
2023/10/13 08:18:49;;;;;;;37.63;13.73;;;;;;;20.41;56.64;101157.13;5049488;28;20036;-75
2023/10/13 08:21:22;;;;;;;43.08;14.32;;;;;;;20.42;56.25;101130.66;5049399;28;20033;-75
2023/10/13 08:26:29;;;;;;;43.17;14.20;;;;;;;20.97;55.18;101155.19;5049368;28;20033;-75
2023/10/13 08:28:56;;;;;;;46.80;14.55;;;;;;;21.05;53.78;101155.97;5049096;28;20028;-75
2023/10/13 08:31:22;;;;;;;40.83;14.32;;;;;;;21.30;53.45;101151.25;5048627;28;20053;-74
2023/10/13 08:33:50;;;;;;;34.72;14.38;;;;;;;21.55;53.08;101154.66;5049100;28;20523;-75
2023/10/13 08:36:28;;;;;;;44.05;15.45;;;;;;;21.73;52.42;101146.13;5049172;28;20032;-76
2023/10/13 08:38:55;;;;;;;39.33;13.52;;;;;;;22.00;51.50;101153.75;5049409;28;20063;-74
2023/10/13 08:43:50;;;;;;;41.72;12.48;;;;;;;22.32;49.99;101147.97;5049314;28;20044;-75
2023/10/13 08:46:51;;;;;;;37.72;9.80;;;;;;;22.51;49.14;101150.13;5049042;28;20481;-76
2023/10/13 08:49:18;;;;;;;24.88;10.80;;;;;;;22.73;47.70;101159.31;5049029;28;20113;-76
2023/10/13 08:51:49;;;;;;;39.65;9.57;;;;;;;22.78;46.83;101154.94;5049052;28;20533;-75
2023/10/13 08:54:19;;;;;;;30.15;9.27;;;;;;;22.97;46.44;101149.91;5048878;28;20082;-76
2023/10/13 08:56:57;;;;;;;23.65;8.73;;;;;;;23.05;46.05;101158.03;5048978;28;20116;-75
2023/10/13 09:05:41;;;;;;;44.00;7.20;;;;;;;23.13;43.97;101150.53;4987030;28;20049;-75
2023/10/13 09:07:55;;;;;;;35.50;7.85;;;;;;;23.19;43.97;101146.16;4986964;28;20137;-75
2023/10/13 09:10:32;;;;;;;23.60;6.47;;;;;;;23.23;44.03;101140.09;4986751;28;20079;-76
2023/10/13 09:13:01;;;;;;;15.25;5.82;;;;;;;23.29;43.63;101141.22;4986998;28;20045;-76
2023/10/13 09:18:41;;;;;;;24.20;5.85;;;;;;;23.46;43.45;101134.44;4986915;28;20500;-75
2023/10/13 09:21:29;;;;;;;32.03;6.85;;;;;;;23.37;46.48;101142.97;4990428;28;20418;-75
2023/10/13 09:24:16;;;;;;;30.65;7.38;;;;;;;23.28;47.69;101150.47;4990447;28;20038;-76
2023/10/13 09:26:41;;;;;;;21.05;7.00;;;;;;;23.22;48.92;101148.50;4990268;28;20125;-76
2023/10/13 09:29:20;;;;;;;60.17;10.02;;;;;;;23.22;49.88;101156.75;4989973;28;20536;-75
2023/10/13 09:32:11;;;;;;;54.83;8.70;;;;;;;23.15;49.50;101155.81;4990456;28;20533;-74
2023/10/13 09:34:40;;;;;;;30.10;7.18;;;;;;;22.99;48.42;101148.69;4990281;28;20034;-75
2023/10/13 09:37:09;;;;;;;17.80;6.60;;;;;;;22.98;49.72;101146.97;4998923;28;20036;-75
2023/10/13 09:39:44;;;;;;;18.13;7.32;;;;;;;22.92;51.71;101146.88;5052492;28;20033;-75
2023/10/13 09:42:15;;;;;;;21.85;7.28;;;;;;;23.02;51.71;101144.69;5052018;28;20032;-75
2023/10/13 09:44:41;;;;;;;19.80;8.57;;;;;;;23.14;50.97;101134.91;5051943;28;20512;-75
2023/10/13 09:47:17;;;;;;;23.08;6.82;;;;;;;23.15;50.29;101122.88;5051715;28;20028;-75
2023/10/13 09:49:44;;;;;;;16.63;5.30;;;;;;;23.29;50.64;101131.09;5052388;28;20025;-76
2023/10/13 09:52:19;;;;;;;16.77;6.30;;;;;;;23.18;50.63;101106.03;5051620;28;20033;-75
2023/10/13 09:54:59;;;;;;;15.13;5.30;;;;;;;23.20;50.10;101110.28;5051365;28;20090;-74
2023/10/13 09:57:34;;;;;;;16.38;5.10;;;;;;;23.42;49.85;101111.19;5051772;28;20029;-76
2023/10/13 10:00:29;;;;;;;25.45;5.20;;;;;;;23.61;49.08;101116.00;5051608;28;20396;-76
2023/10/13 10:02:58;;;;;;;18.77;5.63;;;;;;;23.61;50.78;101120.63;5051640;28;20119;-76
2023/10/13 10:05:26;;;;;;;19.75;5.78;;;;;;;23.84;49.08;101102.91;5051465;28;20029;-75
2023/10/13 10:07:58;;;;;;;32.33;4.80;;;;;;;23.96;49.16;101102.31;5051310;28;20082;-75
2023/10/13 10:10:33;;;;;;;18.58;4.05;;;;;;;24.07;47.25;101099.00;5051302;28;20107;-75
2023/10/13 10:13:16;;;;;;;18.35;5.40;;;;;;;24.18;48.32;101104.00;5051693;28;20033;-76
2023/10/13 10:15:47;;;;;;;17.75;4.47;;;;;;;24.09;47.55;101102.44;5051259;28;20013;-76
2023/10/13 10:18:27;;;;;;;21.13;4.22;;;;;;;23.92;48.49;101103.75;5051975;28;20094;-74
2023/10/13 10:21:07;;;;;;;32.83;5.50;;;;;;;23.74;49.27;101102.38;5051302;28;20029;-76
2023/10/13 10:23:39;;;;;;;29.00;4.75;;;;;;;23.62;49.58;101097.63;5051467;28;20033;-75
2023/10/13 10:26:19;;;;;;;26.33;4.78;;;;;;;23.36;50.30;101106.44;5050799;28;20078;-74
2023/10/13 10:28:46;;;;;;;27.23;4.85;;;;;;;23.21;51.59;101105.63;5051059;28;20043;-75
2023/10/13 10:31:19;;;;;;;17.33;4.10;;;;;;;23.10;51.33;101089.69;5049744;28;20060;-74
2023/10/13 10:33:46;;;;;;;161.93;12.88;;;;;;;23.22;52.27;101104.59;5051446;28;20029;-75
2023/10/13 10:36:14;;;;;;;20.10;4.72;;;;;;;23.18;51.91;101093.16;5050772;28;20477;-76
2023/10/13 10:38:58;;;;;;;18.70;4.65;;;;;;;23.11;51.50;101097.75;5051101;28;20082;-75
2023/10/13 10:44:16;;;;;;;28.58;4.97;;;;;;;23.11;51.68;101096.88;5050577;28;20091;-76
2023/10/13 10:46:51;;;;;;;28.75;6.63;;;;;;;23.25;51.44;101087.75;5050402;28;20408;-76
2023/10/13 10:49:29;;;;;;;18.40;5.68;;;;;;;23.24;50.43;101086.88;5050345;28;20049;-76
2023/10/13 10:52:04;;;;;;;19.67;4.47;;;;;;;23.47;49.36;101081.22;5050408;28;20060;-76
2023/10/13 10:54:32;;;;;;;25.90;4.75;;;;;;;23.47;49.57;101052.91;5050829;28;20028;-75
2023/10/13 10:57:17;;;;;;;28.10;5.30;;;;;;;23.50;49.93;101060.75;5050613;28;20033;-74
2023/10/13 10:59:44;;;;;;;44.33;6.18;;;;;;;23.75;47.90;101084.84;5050461;28;20129;-76
2023/10/13 11:02:15;;;;;;;19.67;4.10;;;;;;;23.78;46.88;101062.47;5050120;28;20484;-74
2023/10/13 11:04:50;;;;;;;7.95;3.38;;;;;;;24.03;44.78;101084.00;5050086;28;20090;-75
2023/10/13 11:07:24;;;;;;;10.45;3.50;;;;;;;24.17;44.34;101078.41;5050505;28;20041;-74
2023/10/13 11:09:52;;;;;;;16.15;4.97;;;;;;;24.09;45.89;101081.31;5050287;28;20477;-75
2023/10/13 11:12:26;;;;;;;16.60;4.15;;;;;;;23.79;46.87;101077.91;5050871;28;20025;-75
2023/10/13 11:17:58;;;;;;;8.35;3.42;;;;;;;23.87;47.28;101081.56;4949566;29;20054;-76
2023/10/13 11:20:34;;;;;;;45.30;4.93;;;;;;;23.95;46.68;101084.13;4933235;29;20031;-76
2023/10/13 11:23:04;;;;;;;20.17;4.70;;;;;;;24.01;46.48;101064.94;4949598;29;20054;-74
2023/10/13 11:25:34;;;;;;;12.90;4.05;;;;;;;24.19;45.14;101069.94;4934015;29;20133;-74
2023/10/13 11:28:28;;;;;;;28.80;4.80;;;;;;;24.06;45.46;101069.84;4949279;29;20097;-75
2023/10/13 11:31:07;;;;;;;18.58;3.97;;;;;;;24.19;45.21;101064.44;4949093;29;20055;-75
2023/10/13 11:33:33;;;;;;;18.23;4.10;;;;;;;24.11;45.63;101068.22;4949321;29;20050;-75
2023/10/13 11:36:03;;;;;;;21.80;4.75;;;;;;;24.08;45.94;101073.25;4949285;29;20436;-75
2023/10/13 11:41:14;;;;;;;20.38;4.43;;;;;;;24.10;46.05;101076.63;4949347;29;20455;-75
2023/10/13 11:51:38;;;;;;;45.67;6.18;;;;;;;24.17;47.15;101078.41;4948947;29;20043;-75
2023/10/13 11:54:04;;;;;;;28.23;5.40;;;;;;;23.90;48.17;101071.00;4959347;28;20125;-75
2023/10/13 11:56:29;;;;;;;10.15;2.95;;;;;;;23.89;48.24;101077.53;5049402;28;20059;-75
2023/10/13 11:59:01;;;;;;;12.27;3.00;;;;;;;23.82;48.17;101074.75;5049403;28;20035;-75
2023/10/13 12:09:52;;;;;;;57.05;6.57;;;;;;;23.48;49.87;101060.97;5049383;28;20043;-75
2023/10/13 12:12:17;;;;;;;19.17;4.20;;;;;;;23.37;50.14;101074.31;5049256;28;20021;-75
2023/10/13 12:14:52;;;;;;;16.58;4.25;;;;;;;23.27;50.51;101074.69;5049409;28;20035;-75
2023/10/13 12:17:34;;;;;;;14.07;4.43;;;;;;;23.36;51.53;101079.00;5029880;28;20661;-75
2023/10/13 12:20:00;;;;;;;13.07;3.65;;;;;;;23.47;52.79;101092.22;5049254;28;20024;-76
2023/10/13 12:22:28;;;;;;;26.08;4.80;;;;;;;23.48;53.49;101082.94;5049311;28;20473;-75
2023/10/13 12:24:57;;;;;;;24.88;4.43;;;;;;;23.46;53.32;101085.00;5049343;28;20043;-76
2023/10/13 12:27:35;;;;;;;24.98;4.05;;;;;;;23.43;53.35;101079.06;5048434;28;20560;-74
2023/10/13 12:30:07;;;;;;;15.68;3.88;;;;;;;23.40;53.46;101073.97;5016534;28;20091;-74
2023/10/13 12:32:34;;;;;;;16.77;4.25;;;;;;;23.26;53.49;101062.00;5049130;28;20091;-75
2023/10/13 12:35:27;;;;;;;20.60;3.78;;;;;;;23.27;53.46;101059.03;5049281;28;20021;-76
2023/10/13 12:54:13;;;;;;;19.58;7.13;;;;;;;23.11;55.59;101074.94;5032839;28;20029;-74
2023/10/13 12:56:41;;;;;;;18.95;4.65;;;;;;;23.10;55.87;101084.19;5052965;28;20032;-75
2023/10/13 12:59:09;;;;;;;35.65;4.82;;;;;;;23.09;55.92;101086.09;5052633;28;20033;-75
2023/10/13 13:01:34;;;;;;;25.88;4.57;;;;;;;22.97;55.76;101057.47;5052924;28;20696;-75
2023/10/13 13:04:03;;;;;;;22.05;4.45;;;;;;;23.23;55.57;101087.09;5052441;28;20086;-75
2023/10/13 13:06:30;;;;;;;10.18;3.20;;;;;;;23.12;55.52;101077.47;5052627;28;20078;-75
2023/10/13 13:08:57;;;;;;;24.80;4.57;;;;;;;23.16;55.88;101087.03;5052401;28;20035;-75
2023/10/13 13:11:23;;;;;;;33.50;4.72;;;;;;;23.22;55.81;101082.63;5052759;28;20049;-75
2023/10/13 13:13:49;;;;;;;22.85;4.63;;;;;;;23.05;56.00;101054.63;5052661;28;20032;-74
2023/10/13 13:16:18;;;;;;;20.83;4.78;;;;;;;23.17;56.18;101075.00;5052385;28;20025;-75
2023/10/13 13:18:43;;;;;;;17.95;4.68;;;;;;;23.15;56.03;101073.47;5052703;28;20029;-74
2023/10/13 13:21:12;;;;;;;12.40;3.50;;;;;;;23.13;56.34;101070.09;5052434;28;20492;-76
2023/10/13 13:23:39;;;;;;;36.20;5.03;;;;;;;23.11;56.82;101085.91;5052330;28;20132;-77
2023/10/13 13:26:15;;;;;;;27.30;6.25;;;;;;;23.10;56.63;101074.09;5051694;28;20025;-75
2023/10/13 13:28:40;;;;;;;28.40;4.55;;;;;;;23.12;56.46;101071.97;5051909;28;20028;-74
2023/10/13 13:31:08;;;;;;;25.35;5.35;;;;;;;23.11;56.73;101067.56;5051445;28;20412;-75
2023/10/13 13:33:38;;;;;;;24.30;4.45;;;;;;;23.06;57.04;101080.13;5052578;28;20036;-74
2023/10/13 13:36:04;;;;;;;26.20;5.68;;;;;;;23.04;56.87;101082.25;5052053;28;20200;-74
2023/10/13 13:38:31;;;;;;;14.73;3.47;;;;;;;22.92;56.91;101086.53;5051907;28;20086;-76
2023/10/13 13:40:58;;;;;;;13.63;4.10;;;;;;;22.91;56.72;101084.81;5052128;28;20053;-74
2023/10/13 13:43:40;;;;;;;43.50;5.40;;;;;;;22.90;56.70;101077.66;5052026;28;20086;-75
2023/10/13 13:46:09;;;;;;;;;;;;;;;22.80;56.84;101077.13;5052095;28;20393;-75
2023/10/13 13:48:38;;;;;;;22.10;4.55;;;;;;;22.77;57.27;101073.72;5051906;28;19912;-75
2023/10/13 13:51:26;;;;;;;14.30;4.75;;;;;;;22.66;57.01;101070.59;5051696;28;20025;-76
2023/10/13 13:53:52;;;;;;;18.27;5.13;;;;;;;22.68;56.34;101063.06;5051672;28;20029;-75
2023/10/13 13:56:18;;;;;;;16.42;7.25;;;;;;;22.65;57.17;101063.44;5051230;28;20373;-75
2023/10/13 13:58:49;;;;;;;30.00;8.48;;;;;;;22.70;57.50;101083.75;5051369;28;20082;-75
2023/10/13 14:01:18;;;;;;;48.15;10.88;;;;;;;22.77;58.16;101081.09;5050906;28;20048;-75
2023/10/13 14:03:45;;;;;;;34.63;10.43;;;;;;;22.72;59.24;101081.66;5051184;28;20072;-76
2023/10/13 14:06:23;;;;;;;25.05;6.68;;;;;;;22.65;59.92;101080.75;5049758;28;20562;-74
2023/10/13 14:08:51;;;;;;;58.53;9.63;;;;;;;22.53;60.11;101070.44;5051319;28;20064;-74
2023/10/13 14:12:15;;;;;;;43.63;13.48;;;;;;;22.56;60.58;101078.28;5051590;28;20024;-75
2023/10/13 14:16:51;;;;;;;30.38;8.00;;;;;;;22.52;61.14;101088.78;5050900;28;20033;-75
2023/10/13 14:19:19;;;;;;;36.22;8.13;;;;;;;22.53;61.13;101086.88;5051583;28;20507;-74
2023/10/13 14:21:53;;;;;;;30.30;6.05;;;;;;;22.50;61.30;101082.63;5051270;28;20091;-75
2023/10/13 14:24:27;;;;;;;17.27;4.70;;;;;;;22.50;61.43;101082.63;5051118;28;20036;-75
2023/10/13 14:26:55;;;;;;;53.33;6.90;;;;;;;22.31;62.12;101054.94;5050599;28;20144;-76
2023/10/13 14:29:21;;;;;;;18.38;4.15;;;;;;;22.43;62.40;101073.47;5050854;28;20032;-75
2023/10/13 14:31:48;;;;;;;29.83;5.95;;;;;;;22.19;62.91;101049.09;5050989;28;20025;-75
2023/10/13 14:34:14;;;;;;;36.72;6.13;;;;;;;22.36;63.26;101085.38;5051248;28;20032;-75
2023/10/13 14:36:48;;;;;;;14.32;6.55;;;;;;;22.32;63.74;101084.94;5050924;28;20043;-75
2023/10/13 14:39:14;;;;;;;25.23;5.75;;;;;;;22.26;63.71;101069.25;5050317;28;20401;-75
2023/10/13 14:41:39;;;;;;;41.22;6.35;;;;;;;22.33;63.56;101081.13;5051069;28;20056;-73
2023/10/13 14:44:05;;;;;;;26.85;4.28;;;;;;;22.17;64.26;101070.34;5015270;28;20125;-75
2023/10/13 14:46:31;;;;;;;20.98;4.70;;;;;;;22.23;64.28;101072.38;5033032;28;20025;-74
2023/10/13 14:48:57;;;;;;;44.00;7.63;;;;;;;22.15;64.31;101080.66;5050498;28;20033;-74
2023/10/13 14:51:25;;;;;;;35.00;5.65;;;;;;;22.09;64.54;101087.75;5050647;28;20071;-76
2023/10/13 14:53:55;;;;;;;21.38;4.78;;;;;;;22.04;64.78;101100.31;5050505;28;20418;-75
2023/10/13 14:56:25;;;;;;;25.92;4.75;;;;;;;22.14;64.41;101089.91;5050707;28;20102;-73
2023/10/13 14:58:52;;;;;;;17.83;5.18;;;;;;;22.03;64.62;101095.88;5050239;28;20028;-75
2023/10/13 15:01:19;;;;;;;23.67;4.95;;;;;;;22.06;64.61;101090.00;5050339;28;20560;-74
2023/10/13 15:03:46;;;;;;;12.40;4.43;;;;;;;21.82;65.01;101076.53;5050002;28;20425;-74
2023/10/13 15:06:29;;;;;;;25.95;5.03;;;;;;;21.94;65.43;101091.50;5050150;28;20024;-76